Neusiedl am See, Austria
Current Conditions -  °F | °C
As of 12:50 AM on Tuesday 21 Oct 2014 (Local Time) from LOWW Reporting Station
Rain Showers Rain Showers  
Wind Chill: 57°   Ceiling: 11000
Heat Index: 57°   Visibility: 4mi
Dew Point: 57°   Wind: 5mph
Humidity: 100%   Direction: 170°S
Pressure: 29.94"   Gusts: NA
Location:  47.95°N, 16.84°E
Report Text: LOWW 202250Z 17004KT 7000 -SHRA FEW030 BKN110 14/14 Q1014 NOSIG
Loading
Personal Weather Stations






























Interactive Weather Map
Tropical Storm Tracking
New forecast layout! Learn more

10-Day Weather Forecast

Advertisements
Track Severe Weather on mobile